Artas, South Dakota
Current Conditions -  °F | °C
As of 8:52 AM on Friday 28 Nov 2014 (Local Time) from KMBG Reporting Station
Clear Clear  
Wind Chill: 11°   Ceiling: Unl
Heat Index: 19°   Visibility: 10mi
Dew Point: 14°   Wind: 6mph
Humidity: 81%   Direction: 90°E
Pressure: 29.72"   Gusts: NA
Location:  45.7737°N, 99.5895°W
Report Text: KMBG 281452Z AUTO 09005KT 10SM CLR M07/M10 A2972 RMK AO2 SLP092 T10721100 56009
Loading
Personal Weather Stations






























Interactive Weather Map New forecast layout! Learn more

10-Day Weather Forecast

Advertisements
Track Severe Weather on mobile